sensor_id;sensor_type;location;lat;lon;timestamp;pressure;altitude;pressure_sealevel;temperature;humidity
76074;BME280;64776;42.636;24.358;2023-06-19T00:00:37;90234.50;;;14.34;83.36
76074;BME280;64776;42.636;24.358;2023-06-19T00:03:39;90234.03;;;14.36;83.30
76074;BME280;64776;42.636;24.358;2023-06-19T00:06:41;90235.47;;;14.31;83.13
76074;BME280;64776;42.636;24.358;2023-06-19T00:09:42;90228.88;;;14.27;83.32
76074;BME280;64776;42.636;24.358;2023-06-19T00:12:42;90217.41;;;14.26;83.18
76074;BME280;64776;42.636;24.358;2023-06-19T00:15:44;90224.25;;;14.33;83.17
76074;BME280;64776;42.636;24.358;2023-06-19T00:18:45;90218.66;;;14.31;83.10
76074;BME280;64776;42.636;24.358;2023-06-19T00:21:48;90217.41;;;14.26;82.97
76074;BME280;64776;42.636;24.358;2023-06-19T00:24:48;90205.72;;;14.24;82.87
76074;BME280;64776;42.636;24.358;2023-06-19T00:27:49;90216.69;;;14.26;83.50
76074;BME280;64776;42.636;24.358;2023-06-19T00:30:50;90212.78;;;14.16;83.26
76074;BME280;64776;42.636;24.358;2023-06-19T00:33:51;90214.47;;;14.24;82.74
76074;BME280;64776;42.636;24.358;2023-06-19T00:36:53;90207.91;;;14.25;81.93
76074;BME280;64776;42.636;24.358;2023-06-19T00:39:54;90211.84;;;14.30;81.85
76074;BME280;64776;42.636;24.358;2023-06-19T00:42:54;90207.66;;;14.34;81.99
76074;BME280;64776;42.636;24.358;2023-06-19T00:45:56;90212.03;;;14.37;82.13
76074;BME280;64776;42.636;24.358;2023-06-19T00:48:57;90209.63;;;14.28;81.88
76074;BME280;64776;42.636;24.358;2023-06-19T00:51:59;90213.28;;;14.31;82.47
76074;BME280;64776;42.636;24.358;2023-06-19T00:55:00;90203.97;;;14.26;82.80
76074;BME280;64776;42.636;24.358;2023-06-19T00:58:02;90196.94;;;14.23;82.49
76074;BME280;64776;42.636;24.358;2023-06-19T01:01:03;90203.78;;;14.13;82.83
76074;BME280;64776;42.636;24.358;2023-06-19T01:04:04;90196.75;;;13.99;82.82
76074;BME280;64776;42.636;24.358;2023-06-19T01:07:09;90204.81;;;13.77;84.53
76074;BME280;64776;42.636;24.358;2023-06-19T01:10:16;90196.72;;;14.05;83.31
76074;BME280;64776;42.636;24.358;2023-06-19T01:13:17;90189.94;;;13.93;83.57
76074;BME280;64776;42.636;24.358;2023-06-19T01:16:20;90200.38;;;14.07;83.87
76074;BME280;64776;42.636;24.358;2023-06-19T01:19:22;90203.06;;;14.13;83.04
76074;BME280;64776;42.636;24.358;2023-06-19T01:22:25;90209.41;;;14.15;83.02
76074;BME280;64776;42.636;24.358;2023-06-19T01:25:26;90196.25;;;13.89;83.74
76074;BME280;64776;42.636;24.358;2023-06-19T01:28:27;90206.50;;;13.97;83.20
76074;BME280;64776;42.636;24.358;2023-06-19T01:31:31;90214.31;;;13.72;84.30
76074;BME280;64776;42.636;24.358;2023-06-19T01:34:35;90207.75;;;13.57;84.69
76074;BME280;64776;42.636;24.358;2023-06-19T01:37:40;90204.81;;;13.55;85.11
76074;BME280;64776;42.636;24.358;2023-06-19T01:40:42;90206.28;;;13.56;85.64
76074;BME280;64776;42.636;24.358;2023-06-19T01:43:43;90204.56;;;13.42;85.57
76074;BME280;64776;42.636;24.358;2023-06-19T01:46:47;90213.09;;;13.40;84.87
76074;BME280;64776;42.636;24.358;2023-06-19T01:49:48;90209.66;;;13.18;86.09
76074;BME280;64776;42.636;24.358;2023-06-19T01:52:51;90206.00;;;13.10;86.50
76074;BME280;64776;42.636;24.358;2023-06-19T01:55:52;90211.97;;;12.71;88.24
76074;BME280;64776;42.636;24.358;2023-06-19T01:58:53;90216.34;;;12.74;88.22
76074;BME280;64776;42.636;24.358;2023-06-19T02:01:53;90206.41;;;12.86;87.65
76074;BME280;64776;42.636;24.358;2023-06-19T02:04:54;90208.88;;;13.00;86.86
76074;BME280;64776;42.636;24.358;2023-06-19T02:07:56;90209.84;;;13.03;86.44
76074;BME280;64776;42.636;24.358;2023-06-19T02:10:57;90209.84;;;12.92;86.82
76074;BME280;64776;42.636;24.358;2023-06-19T02:13:58;90224.19;;;12.94;86.30
76074;BME280;64776;42.636;24.358;2023-06-19T02:16:59;90219.59;;;12.95;86.50
76074;BME280;64776;42.636;24.358;2023-06-19T02:19:59;90221.53;;;12.94;86.22
76074;BME280;64776;42.636;24.358;2023-06-19T02:23:01;90223.44;;;12.88;85.89
76074;BME280;64776;42.636;24.358;2023-06-19T02:26:02;90233.34;;;12.60;87.48
76074;BME280;64776;42.636;24.358;2023-06-19T02:29:03;90228.84;;;12.35;88.65
76074;BME280;64776;42.636;24.358;2023-06-19T02:32:04;90242.03;;;12.44;89.05
76074;BME280;64776;42.636;24.358;2023-06-19T02:35:09;90235.22;;;12.43;89.61
76074;BME280;64776;42.636;24.358;2023-06-19T02:38:12;90239.19;;;12.64;88.45
76074;BME280;64776;42.636;24.358;2023-06-19T02:41:12;90248.44;;;12.63;88.56
76074;BME280;64776;42.636;24.358;2023-06-19T02:44:13;90241.56;;;12.51;88.70
76074;BME280;64776;42.636;24.358;2023-06-19T02:47:14;90241.06;;;12.42;89.14
76074;BME280;64776;42.636;24.358;2023-06-19T02:50:15;90241.91;;;12.22;89.54
76074;BME280;64776;42.636;24.358;2023-06-19T02:53:17;90249.69;;;12.20;89.87
76074;BME280;64776;42.636;24.358;2023-06-19T02:56:18;90247.00;;;12.20;90.21
76074;BME280;64776;42.636;24.358;2023-06-19T02:59:19;90243.03;;;12.04;90.74
76074;BME280;64776;42.636;24.358;2023-06-19T03:02:19;90244.81;;;12.13;91.39
76074;BME280;64776;42.636;24.358;2023-06-19T03:05:20;90245.84;;;12.26;90.49
76074;BME280;64776;42.636;24.358;2023-06-19T03:08:23;90243.97;;;12.38;89.93
76074;BME280;64776;42.636;24.358;2023-06-19T03:11:23;90252.69;;;12.33;89.11
76074;BME280;64776;42.636;24.358;2023-06-19T03:14:24;90248.50;;;12.21;88.88
76074;BME280;64776;42.636;24.358;2023-06-19T03:17:25;90246.75;;;12.18;88.69
76074;BME280;64776;42.636;24.358;2023-06-19T03:20:26;90242.09;;;12.07;88.50
76074;BME280;64776;42.636;24.358;2023-06-19T03:23:28;90245.69;;;11.99;88.56
76074;BME280;64776;42.636;24.358;2023-06-19T03:26:29;90248.81;;;11.97;88.96
76074;BME280;64776;42.636;24.358;2023-06-19T03:29:30;90248.13;;;11.97;89.38
76074;BME280;64776;42.636;24.358;2023-06-19T03:32:30;90250.97;;;11.88;89.59
76074;BME280;64776;42.636;24.358;2023-06-19T03:35:31;90248.38;;;11.99;90.03
76074;BME280;64776;42.636;24.358;2023-06-19T03:38:33;90248.88;;;12.03;89.77
76074;BME280;64776;42.636;24.358;2023-06-19T03:41:34;90246.72;;;12.07;89.50
76074;BME280;64776;42.636;24.358;2023-06-19T03:44:35;90246.72;;;12.07;89.42
76074;BME280;64776;42.636;24.358;2023-06-19T03:47:36;90251.34;;;12.12;89.64
76074;BME280;64776;42.636;24.358;2023-06-19T03:50:36;90251.69;;;12.25;88.27
76074;BME280;64776;42.636;24.358;2023-06-19T03:53:39;90253.19;;;12.37;89.04
76074;BME280;64776;42.636;24.358;2023-06-19T03:56:39;90245.72;;;12.47;89.02
76074;BME280;64776;42.636;24.358;2023-06-19T03:59:40;90237.72;;;12.63;88.56
76074;BME280;64776;42.636;24.358;2023-06-19T04:02:41;90244.78;;;12.61;88.05
76074;BME280;64776;42.636;24.358;2023-06-19T04:05:42;90237.06;;;12.79;88.07
76074;BME280;64776;42.636;24.358;2023-06-19T04:08:44;90238.53;;;12.86;88.10
76074;BME280;64776;42.636;24.358;2023-06-19T04:11:45;90238.88;;;13.10;87.00
76074;BME280;64776;42.636;24.358;2023-06-19T04:14:45;90236.25;;;13.32;86.48
76074;BME280;64776;42.636;24.358;2023-06-19T04:17:48;90232.84;;;13.48;86.39
76074;BME280;64776;42.636;24.358;2023-06-19T04:20:49;90223.34;;;13.64;85.60
76074;BME280;64776;42.636;24.358;2023-06-19T04:23:52;90223.34;;;13.80;85.49
76074;BME280;64776;42.636;24.358;2023-06-19T04:26:52;90222.13;;;13.93;85.13
76074;BME280;64776;42.636;24.358;2023-06-19T04:29:53;90218.91;;;14.00;85.29
76074;BME280;64776;42.636;24.358;2023-06-19T04:32:54;90227.41;;;14.20;84.51
76074;BME280;64776;42.636;24.358;2023-06-19T04:35:55;90225.69;;;14.50;83.69
76074;BME280;64776;42.636;24.358;2023-06-19T04:38:57;90215.81;;;14.69;82.55
76074;BME280;64776;42.636;24.358;2023-06-19T04:41:58;90207.00;;;14.86;80.60
76074;BME280;64776;42.636;24.358;2023-06-19T04:44:59;90211.94;;;15.17;79.09
76074;BME280;64776;42.636;24.358;2023-06-19T04:47:59;90212.56;;;15.34;77.52
76074;BME280;64776;42.636;24.358;2023-06-19T04:51:00;90222.72;;;15.52;78.52
76074;BME280;64776;42.636;24.358;2023-06-19T04:54:02;90228.97;;;15.71;77.55
76074;BME280;64776;42.636;24.358;2023-06-19T04:57:04;90225.28;;;15.74;76.48
76074;BME280;64776;42.636;24.358;2023-06-19T05:00:06;90233.69;;;15.89;76.24
76074;BME280;64776;42.636;24.358;2023-06-19T05:03:07;90220.06;;;16.11;73.93
76074;BME280;64776;42.636;24.358;2023-06-19T05:06:08;90229.66;;;16.31;73.80
76074;BME280;64776;42.636;24.358;2023-06-19T05:09:11;90232.06;;;16.35;74.10
76074;BME280;64776;42.636;24.358;2023-06-19T05:12:11;90229.75;;;16.50;75.22
76074;BME280;64776;42.636;24.358;2023-06-19T05:15:12;90229.44;;;16.59;73.34
76074;BME280;64776;42.636;24.358;2023-06-19T05:18:13;90235.84;;;16.74;74.24
76074;BME280;64776;42.636;24.358;2023-06-19T05:21:14;90232.97;;;16.91;73.26
76074;BME280;64776;42.636;24.358;2023-06-19T05:24:16;90239.09;;;16.91;73.87
76074;BME280;64776;42.636;24.358;2023-06-19T05:27:16;90235.75;;;17.04;71.95
76074;BME280;64776;42.636;24.358;2023-06-19T05:30:17;90235.38;;;16.94;73.87
76074;BME280;64776;42.636;24.358;2023-06-19T05:33:18;90246.97;;;17.08;72.90
76074;BME280;64776;42.636;24.358;2023-06-19T05:36:19;90239.41;;;17.25;71.37
76074;BME280;64776;42.636;24.358;2023-06-19T05:39:21;90238.91;;;17.27;71.73
76074;BME280;64776;42.636;24.358;2023-06-19T05:42:22;90241.22;;;17.36;71.17
76074;BME280;64776;42.636;24.358;2023-06-19T05:45:22;90239.78;;;17.53;71.89
76074;BME280;64776;42.636;24.358;2023-06-19T05:48:23;90234.75;;;17.63;71.48
76074;BME280;64776;42.636;24.358;2023-06-19T05:51:24;90236.00;;;17.62;69.92
76074;BME280;64776;42.636;24.358;2023-06-19T05:54:26;90235.69;;;17.65;69.94
76074;BME280;64776;42.636;24.358;2023-06-19T05:57:27;90235.03;;;17.78;70.08
76074;BME280;64776;42.636;24.358;2023-06-19T06:00:28;90238.88;;;17.82;69.97
76074;BME280;64776;42.636;24.358;2023-06-19T06:03:28;90245.13;;;17.91;70.72
76074;BME280;64776;42.636;24.358;2023-06-19T06:06:29;90239.06;;;18.03;68.44
76074;BME280;64776;42.636;24.358;2023-06-19T06:09:31;90247.53;;;18.26;68.66
76074;BME280;64776;42.636;24.358;2023-06-19T06:12:33;90248.19;;;18.45;67.51
76074;BME280;64776;42.636;24.358;2023-06-19T06:15:34;90245.25;;;18.43;66.71
76074;BME280;64776;42.636;24.358;2023-06-19T06:18:35;90243.31;;;18.43;66.21
76074;BME280;64776;42.636;24.358;2023-06-19T06:21:36;90251.28;;;18.36;65.18
76074;BME280;64776;42.636;24.358;2023-06-19T06:24:38;90249.34;;;18.49;66.08
76074;BME280;64776;42.636;24.358;2023-06-19T06:27:39;90241.16;;;18.68;67.43
76074;BME280;64776;42.636;24.358;2023-06-19T06:30:39;90243.66;;;18.79;65.16
76074;BME280;64776;42.636;24.358;2023-06-19T06:33:40;90244.91;;;18.91;65.92
76074;BME280;64776;42.636;24.358;2023-06-19T06:36:41;90243.66;;;18.79;66.83
76074;BME280;64776;42.636;24.358;2023-06-19T06:39:43;90247.81;;;18.93;65.99
76074;BME280;64776;42.636;24.358;2023-06-19T06:42:44;90249.47;;;18.96;65.52
76074;BME280;64776;42.636;24.358;2023-06-19T06:45:45;90252.19;;;19.09;64.66
76074;BME280;64776;42.636;24.358;2023-06-19T06:48:45;90251.84;;;19.26;65.19
76074;BME280;64776;42.636;24.358;2023-06-19T06:51:46;90245.50;;;19.36;64.87
76074;BME280;64776;42.636;24.358;2023-06-19T06:54:48;90251.34;;;19.40;64.74
76074;BME280;64776;42.636;24.358;2023-06-19T06:57:49;90256.28;;;19.63;63.23
76074;BME280;64776;42.636;24.358;2023-06-19T07:00:50;90251.75;;;19.78;63.01
76074;BME280;64776;42.636;24.358;2023-06-19T07:03:51;90256.66;;;19.80;62.01
76074;BME280;64776;42.636;24.358;2023-06-19T07:06:52;90264.56;;;19.78;62.64
76074;BME280;64776;42.636;24.358;2023-06-19T07:09:54;90266.91;;;19.94;63.60
76074;BME280;64776;42.636;24.358;2023-06-19T07:12:55;90268.03;;;19.99;61.15
76074;BME280;64776;42.636;24.358;2023-06-19T07:15:55;90268.88;;;19.94;62.24
76074;BME280;64776;42.636;24.358;2023-06-19T07:18:56;90272.50;;;19.76;62.17
76074;BME280;64776;42.636;24.358;2023-06-19T07:21:57;90277.94;;;19.63;63.57
76074;BME280;64776;42.636;24.358;2023-06-19T07:24:59;90272.16;;;19.79;62.82
76074;BME280;64776;42.636;24.358;2023-06-19T07:28:00;90273.66;;;20.01;63.57
76074;BME280;64776;42.636;24.358;2023-06-19T07:31:01;90279.47;;;20.05;62.47
76074;BME280;64776;42.636;24.358;2023-06-19T07:34:02;90279.84;;;20.22;61.63
76074;BME280;64776;42.636;24.358;2023-06-19T07:37:04;90283.59;;;20.19;61.19
76074;BME280;64776;42.636;24.358;2023-06-19T07:40:07;90284.34;;;20.19;60.34
76074;BME280;64776;42.636;24.358;2023-06-19T07:43:08;90288.69;;;20.22;60.06
76074;BME280;64776;42.636;24.358;2023-06-19T07:46:09;90287.19;;;20.35;60.71
76074;BME280;64776;42.636;24.358;2023-06-19T07:49:10;90286.19;;;20.45;58.78
76074;BME280;64776;42.636;24.358;2023-06-19T07:52:11;90286.63;;;20.36;61.00
76074;BME280;64776;42.636;24.358;2023-06-19T07:55:13;90288.50;;;20.41;59.29
76074;BME280;64776;42.636;24.358;2023-06-19T07:58:14;90295.59;;;20.23;60.10
76074;BME280;64776;42.636;24.358;2023-06-19T08:01:15;90301.72;;;20.45;58.07
76074;BME280;64776;42.636;24.358;2023-06-19T08:04:16;90300.53;;;20.53;59.86
76074;BME280;64776;42.636;24.358;2023-06-19T08:07:17;90310.59;;;20.45;58.90
76074;BME280;64776;42.636;24.358;2023-06-19T08:10:19;90294.47;;;20.60;60.52
76074;BME280;64776;42.636;24.358;2023-06-19T08:13:20;90297.97;;;20.96;58.62
76074;BME280;64776;42.636;24.358;2023-06-19T08:16:21;90297.00;;;21.07;58.68
76074;BME280;64776;42.636;24.358;2023-06-19T08:19:22;90296.84;;;21.13;58.91
76074;BME280;64776;42.636;24.358;2023-06-19T08:22:22;90308.28;;;21.19;58.33
76074;BME280;64776;42.636;24.358;2023-06-19T08:25:25;90301.00;;;21.42;56.47
76074;BME280;64776;42.636;24.358;2023-06-19T08:28:25;90306.97;;;21.40;57.80
76074;BME280;64776;42.636;24.358;2023-06-19T08:31:26;90298.03;;;21.68;55.01
76074;BME280;64776;42.636;24.358;2023-06-19T08:34:27;90306.66;;;21.87;57.58
76074;BME280;64776;42.636;24.358;2023-06-19T08:37:28;90311.59;;;21.96;56.46
76074;BME280;64776;42.636;24.358;2023-06-19T08:40:31;90303.75;;;21.49;56.25
76074;BME280;64776;42.636;24.358;2023-06-19T08:43:34;90305.16;;;21.43;55.84
76074;BME280;64776;42.636;24.358;2023-06-19T08:46:35;90305.94;;;21.51;56.89
76074;BME280;64776;42.636;24.358;2023-06-19T08:49:38;90304.19;;;22.04;56.20
76074;BME280;64776;42.636;24.358;2023-06-19T08:52:39;90304.38;;;22.06;53.62
76074;BME280;64776;42.636;24.358;2023-06-19T08:55:42;90307.00;;;21.83;55.42
76074;BME280;64776;42.636;24.358;2023-06-19T08:58:43;90306.22;;;21.40;56.21
76074;BME280;64776;42.636;24.358;2023-06-19T09:01:46;90307.59;;;21.26;55.84
76074;BME280;64776;42.636;24.358;2023-06-19T09:04:47;90305.56;;;21.47;56.26
76074;BME280;64776;42.636;24.358;2023-06-19T09:07:55;90308.63;;;21.86;53.72
76074;BME280;64776;42.636;24.358;2023-06-19T09:10:59;90298.97;;;22.21;53.27
76074;BME280;64776;42.636;24.358;2023-06-19T09:13:59;90302.88;;;21.98;54.27
76074;BME280;64776;42.636;24.358;2023-06-19T09:17:01;90310.13;;;21.95;53.68
76074;BME280;64776;42.636;24.358;2023-06-19T09:20:03;90311.66;;;21.40;53.80
76074;BME280;64776;42.636;24.358;2023-06-19T09:23:04;90311.66;;;21.40;56.34
76074;BME280;64776;42.636;24.358;2023-06-19T09:26:06;90309.56;;;21.53;55.23
76074;BME280;64776;42.636;24.358;2023-06-19T09:29:11;90315.03;;;21.61;55.05
76074;BME280;64776;42.636;24.358;2023-06-19T09:32:16;90306.16;;;22.04;54.49
76074;BME280;64776;42.636;24.358;2023-06-19T09:35:17;90310.97;;;22.33;54.33
76074;BME280;64776;42.636;24.358;2023-06-19T09:38:21;90314.31;;;22.70;52.58
76074;BME280;64776;42.636;24.358;2023-06-19T09:41:23;90311.22;;;22.58;50.83
76074;BME280;64776;42.636;24.358;2023-06-19T09:44:26;90312.16;;;22.10;55.01
76074;BME280;64776;42.636;24.358;2023-06-19T09:47:30;90313.22;;;22.73;55.67
76074;BME280;64776;42.636;24.358;2023-06-19T09:50:32;90298.34;;;22.74;52.33
76074;BME280;64776;42.636;24.358;2023-06-19T09:53:34;90293.44;;;22.95;50.60
76074;BME280;64776;42.636;24.358;2023-06-19T09:56:37;90305.03;;;23.40;50.10
76074;BME280;64776;42.636;24.358;2023-06-19T09:59:40;90297.38;;;23.54;49.73
76074;BME280;64776;42.636;24.358;2023-06-19T10:02:42;90299.66;;;23.80;49.62
76074;BME280;64776;42.636;24.358;2023-06-19T10:05:43;90298.91;;;22.87;50.10
76074;BME280;64776;42.636;24.358;2023-06-19T10:08:45;90295.78;;;23.13;48.82
76074;BME280;64776;42.636;24.358;2023-06-19T10:11:51;90294.41;;;24.22;50.65
76074;BME280;64776;42.636;24.358;2023-06-19T10:14:52;90294.78;;;24.51;47.37
76074;BME280;64776;42.636;24.358;2023-06-19T10:17:54;90291.72;;;24.14;47.35
76074;BME280;64776;42.636;24.358;2023-06-19T10:20:59;90298.88;;;23.17;48.29
76074;BME280;64776;42.636;24.358;2023-06-19T10:24:01;90297.16;;;23.60;51.10
76074;BME280;64776;42.636;24.358;2023-06-19T10:27:04;90288.75;;;23.80;50.19
76074;BME280;64776;42.636;24.358;2023-06-19T10:30:16;90290.31;;;23.21;49.44
76074;BME280;64776;42.636;24.358;2023-06-19T10:33:17;90297.97;;;23.37;51.33
76074;BME280;64776;42.636;24.358;2023-06-19T10:40:14;90279.81;;;23.40;47.82
76074;BME280;64776;42.636;24.358;2023-06-19T10:43:21;90292.88;;;23.19;49.79
76074;BME280;64776;42.636;24.358;2023-06-19T10:46:23;90289.66;;;22.83;50.50
76074;BME280;64776;42.636;24.358;2023-06-19T10:49:24;90301.25;;;22.60;52.37
76074;BME280;64776;42.636;24.358;2023-06-19T10:52:28;90292.16;;;23.11;49.37
76074;BME280;64776;42.636;24.358;2023-06-19T10:55:29;90298.88;;;23.02;49.04
76074;BME280;64776;42.636;24.358;2023-06-19T10:58:31;90301.94;;;22.53;49.50
76074;BME280;64776;42.636;24.358;2023-06-19T11:01:34;90297.25;;;22.61;47.39
76074;BME280;64776;42.636;24.358;2023-06-19T11:04:37;90293.09;;;22.60;48.56
76074;BME280;64776;42.636;24.358;2023-06-19T11:07:38;90286.94;;;22.98;51.29
76074;BME280;64776;42.636;24.358;2023-06-19T11:10:39;90285.50;;;23.74;49.48
76074;BME280;64776;42.636;24.358;2023-06-19T11:13:43;90291.03;;;23.99;47.80
76074;BME280;64776;42.636;24.358;2023-06-19T11:16:46;90282.94;;;24.23;45.79
76074;BME280;64776;42.636;24.358;2023-06-19T11:19:47;90284.91;;;24.31;46.47
76074;BME280;64776;42.636;24.358;2023-06-19T11:22:53;90294.63;;;23.69;45.79
76074;BME280;64776;42.636;24.358;2023-06-19T11:26:01;90283.06;;;23.38;49.06
76074;BME280;64776;42.636;24.358;2023-06-19T11:29:13;90279.97;;;24.04;47.14
76074;BME280;64776;42.636;24.358;2023-06-19T11:32:15;90276.75;;;23.83;46.84
76074;BME280;64776;42.636;24.358;2023-06-19T11:35:16;90276.69;;;23.98;46.88
76074;BME280;64776;42.636;24.358;2023-06-19T11:38:18;90279.16;;;23.72;47.73
76074;BME280;64776;42.636;24.358;2023-06-19T11:41:26;90266.75;;;24.25;47.22
76074;BME280;64776;42.636;24.358;2023-06-19T11:44:28;90279.44;;;23.98;46.43
76074;BME280;64776;42.636;24.358;2023-06-19T11:47:30;90278.69;;;24.38;44.97
76074;BME280;64776;42.636;24.358;2023-06-19T11:50:31;90267.34;;;24.81;43.51
76074;BME280;64776;42.636;24.358;2023-06-19T11:53:31;90261.66;;;25.28;45.62
76074;BME280;64776;42.636;24.358;2023-06-19T11:56:32;90277.38;;;25.37;45.19
76074;BME280;64776;42.636;24.358;2023-06-19T11:59:35;90269.47;;;25.07;44.37
76074;BME280;64776;42.636;24.358;2023-06-19T12:02:36;90268.25;;;24.51;44.14
76074;BME280;64776;42.636;24.358;2023-06-19T12:05:38;90249.97;;;24.37;44.00
76074;BME280;64776;42.636;24.358;2023-06-19T12:08:38;90252.47;;;24.67;45.19
76074;BME280;64776;42.636;24.358;2023-06-19T12:11:39;90257.09;;;25.06;44.88
76074;BME280;64776;42.636;24.358;2023-06-19T12:14:41;90258.66;;;24.67;42.86
76074;BME280;64776;42.636;24.358;2023-06-19T12:17:42;90252.44;;;24.99;43.26
76074;BME280;64776;42.636;24.358;2023-06-19T12:20:43;90248.16;;;24.88;42.61
76074;BME280;64776;42.636;24.358;2023-06-19T12:23:44;90258.03;;;24.84;44.31
76074;BME280;64776;42.636;24.358;2023-06-19T12:26:45;90245.81;;;25.10;41.43
76074;BME280;64776;42.636;24.358;2023-06-19T12:29:47;90247.66;;;24.82;42.66
76074;BME280;64776;42.636;24.358;2023-06-19T12:32:48;90255.66;;;25.05;41.83
76074;BME280;64776;42.636;24.358;2023-06-19T12:35:48;90253.69;;;24.81;40.92
76074;BME280;64776;42.636;24.358;2023-06-19T12:38:49;90255.34;;;24.52;39.66
76074;BME280;64776;42.636;24.358;2023-06-19T12:41:50;90261.56;;;24.45;40.18
76074;BME280;64776;42.636;24.358;2023-06-19T12:44:52;90258.63;;;24.18;40.11
76074;BME280;64776;42.636;24.358;2023-06-19T12:47:53;90249.50;;;23.83;43.53
76074;BME280;64776;42.636;24.358;2023-06-19T12:50:54;90245.25;;;23.50;44.41
76074;BME280;64776;42.636;24.358;2023-06-19T12:53:55;90247.50;;;24.23;43.51
76074;BME280;64776;42.636;24.358;2023-06-19T12:56:56;90246.91;;;24.57;42.29
76074;BME280;64776;42.636;24.358;2023-06-19T12:59:58;90246.16;;;24.64;42.75
76074;BME280;64776;42.636;24.358;2023-06-19T13:02:59;90240.22;;;24.51;42.10
76074;BME280;64776;42.636;24.358;2023-06-19T13:05:59;90251.59;;;23.60;44.23
76074;BME280;64776;42.636;24.358;2023-06-19T13:12:01;90243.56;;;23.70;42.80
76074;BME280;64776;42.636;24.358;2023-06-19T13:15:04;90240.81;;;23.77;43.12
76074;BME280;64776;42.636;24.358;2023-06-19T13:18:05;90253.91;;;23.71;42.46
76074;BME280;64776;42.636;24.358;2023-06-19T13:21:05;90248.34;;;23.54;42.63
76074;BME280;64776;42.636;24.358;2023-06-19T13:24:06;90241.91;;;23.74;41.12
76074;BME280;64776;42.636;24.358;2023-06-19T13:27:07;90246.88;;;24.00;41.50
76074;BME280;64776;42.636;24.358;2023-06-19T13:30:10;90253.09;;;23.93;39.72
76074;BME280;64776;42.636;24.358;2023-06-19T13:33:11;90242.69;;;24.07;39.82
76074;BME280;64776;42.636;24.358;2023-06-19T13:36:12;90247.59;;;24.01;39.59
76074;BME280;64776;42.636;24.358;2023-06-19T13:39:13;90249.38;;;24.13;39.06
76074;BME280;64776;42.636;24.358;2023-06-19T13:42:14;90247.25;;;24.04;38.27
76074;BME280;64776;42.636;24.358;2023-06-19T13:45:16;90241.09;;;23.96;37.60
76074;BME280;64776;42.636;24.358;2023-06-19T13:48:17;90241.84;;;23.89;39.59
76074;BME280;64776;42.636;24.358;2023-06-19T13:51:18;90247.88;;;23.80;39.85
76074;BME280;64776;42.636;24.358;2023-06-19T13:54:19;90246.69;;;24.06;37.08
76074;BME280;64776;42.636;24.358;2023-06-19T13:57:20;90259.22;;;24.09;38.79
76074;BME280;64776;42.636;24.358;2023-06-19T14:00:22;90244.66;;;24.14;38.75
76074;BME280;64776;42.636;24.358;2023-06-19T14:03:23;90256.34;;;24.07;38.49
76074;BME280;64776;42.636;24.358;2023-06-19T14:06:24;90246.94;;;23.85;39.27
76074;BME280;64776;42.636;24.358;2023-06-19T14:09:25;90253.78;;;23.54;39.82
76074;BME280;64776;42.636;24.358;2023-06-19T14:12:26;90248.75;;;23.90;39.55
76074;BME280;64776;42.636;24.358;2023-06-19T14:15:28;90257.63;;;23.43;38.81
76074;BME280;64776;42.636;24.358;2023-06-19T14:18:28;90256.53;;;23.39;40.12
76074;BME280;64776;42.636;24.358;2023-06-19T14:21:29;90263.47;;;23.40;39.76
76074;BME280;64776;42.636;24.358;2023-06-19T14:24:30;90248.94;;;23.37;38.52
76074;BME280;64776;42.636;24.358;2023-06-19T14:27:31;90250.09;;;22.82;39.88
76074;BME280;64776;42.636;24.358;2023-06-19T14:30:33;90258.41;;;23.06;39.15
76074;BME280;64776;42.636;24.358;2023-06-19T14:33:34;90249.28;;;23.49;39.70
76074;BME280;64776;42.636;24.358;2023-06-19T14:36:37;90242.41;;;23.33;39.54
76074;BME280;64776;42.636;24.358;2023-06-19T14:39:38;90247.16;;;23.10;39.91
76074;BME280;64776;42.636;24.358;2023-06-19T14:42:39;90240.13;;;22.69;39.58
76074;BME280;64776;42.636;24.358;2023-06-19T14:45:41;90256.22;;;22.37;41.62
76074;BME280;64776;42.636;24.358;2023-06-19T14:48:42;90239.91;;;22.44;40.50
76074;BME280;64776;42.636;24.358;2023-06-19T14:51:43;90242.66;;;22.52;41.90
76074;BME280;64776;42.636;24.358;2023-06-19T14:54:43;90236.47;;;22.44;42.17
76074;BME280;64776;42.636;24.358;2023-06-19T14:57:44;90246.78;;;22.30;42.93
76074;BME280;64776;42.636;24.358;2023-06-19T15:00:46;90235.38;;;22.17;42.21
76074;BME280;64776;42.636;24.358;2023-06-19T15:03:47;90235.50;;;21.96;41.42
76074;BME280;64776;42.636;24.358;2023-06-19T15:06:48;90250.34;;;21.52;42.68
76074;BME280;64776;42.636;24.358;2023-06-19T15:09:49;90244.06;;;21.57;42.35
76074;BME280;64776;42.636;24.358;2023-06-19T15:12:49;90244.16;;;21.36;41.42
76074;BME280;64776;42.636;24.358;2023-06-19T15:15:52;90255.19;;;21.38;42.30
76074;BME280;64776;42.636;24.358;2023-06-19T15:18:53;90249.22;;;21.40;42.23
76074;BME280;64776;42.636;24.358;2023-06-19T15:21:54;90246.75;;;21.14;41.40
76074;BME280;64776;42.636;24.358;2023-06-19T15:24:55;90250.97;;;21.30;41.66
76074;BME280;64776;42.636;24.358;2023-06-19T15:27:55;90252.13;;;21.42;41.77
76074;BME280;64776;42.636;24.358;2023-06-19T15:30:59;90250.03;;;21.63;42.83
76074;BME280;64776;42.636;24.358;2023-06-19T15:33:59;90250.59;;;21.69;41.88
76074;BME280;64776;42.636;24.358;2023-06-19T15:37:00;90245.50;;;21.58;42.08
76074;BME280;64776;42.636;24.358;2023-06-19T15:40:01;90243.53;;;21.66;42.24
76074;BME280;64776;42.636;24.358;2023-06-19T15:43:03;90247.72;;;21.74;41.56
76074;BME280;64776;42.636;24.358;2023-06-19T15:46:06;90247.69;;;21.67;42.13
76074;BME280;64776;42.636;24.358;2023-06-19T15:49:06;90248.00;;;21.48;42.34
76074;BME280;64776;42.636;24.358;2023-06-19T15:52:07;90248.69;;;21.41;42.72
76074;BME280;64776;42.636;24.358;2023-06-19T15:55:08;90246.50;;;21.40;43.72